createdAt,value
2023-01-15T00:00:06.416Z,0.00
2023-01-15T00:01:07.417Z,0.00
2023-01-15T00:02:07.832Z,0.00
2023-01-15T00:03:08.703Z,0.00
2023-01-15T00:04:09.579Z,0.00
2023-01-15T00:05:10.462Z,0.00
2023-01-15T00:06:11.362Z,0.00
2023-01-15T00:07:12.246Z,0.00
2023-01-15T00:08:13.120Z,0.00
2023-01-15T00:09:14.000Z,0.00
2023-01-15T00:10:14.883Z,0.00
2023-01-15T00:11:15.769Z,0.00
2023-01-15T00:12:16.697Z,0.00
2023-01-15T00:13:17.566Z,0.00
2023-01-15T00:14:18.481Z,0.00
2023-01-15T00:15:19.372Z,0.00
2023-01-15T00:16:20.313Z,0.00
2023-01-15T00:17:21.190Z,0.00
2023-01-15T00:18:22.104Z,0.00
2023-01-15T00:19:22.987Z,0.00
2023-01-15T00:20:23.858Z,0.00
2023-01-15T00:21:24.756Z,0.00
2023-01-15T00:22:25.663Z,0.00
2023-01-15T00:23:26.571Z,0.00
2023-01-15T00:24:27.480Z,0.00
2023-01-15T00:25:28.386Z,0.00
2023-01-15T00:26:29.259Z,0.00
2023-01-15T00:27:30.179Z,0.00
2023-01-15T00:28:31.050Z,0.00
2023-01-15T00:29:31.934Z,0.00
2023-01-15T00:30:32.830Z,0.00
2023-01-15T00:31:33.722Z,0.00
2023-01-15T00:32:34.590Z,0.00
2023-01-15T00:33:35.474Z,0.00
2023-01-15T00:34:36.379Z,0.00
2023-01-15T00:35:37.242Z,0.00
2023-01-15T00:36:38.126Z,0.00
2023-01-15T00:37:39.025Z,0.00
2023-01-15T00:38:39.903Z,0.00
2023-01-15T00:39:40.788Z,0.00
2023-01-15T00:40:41.671Z,0.00
2023-01-15T00:41:42.556Z,0.00
2023-01-15T00:42:43.462Z,0.00
2023-01-15T00:43:45.223Z,0.00
2023-01-15T00:44:45.095Z,0.00
2023-01-15T00:45:45.986Z,0.00
2023-01-15T00:46:46.990Z,0.00
2023-01-15T00:47:47.829Z,0.00
2023-01-15T00:48:48.724Z,0.00
2023-01-15T00:49:49.601Z,0.00
2023-01-15T00:50:50.477Z,0.00
2023-01-15T00:51:51.361Z,0.00
2023-01-15T00:52:52.255Z,0.00
2023-01-15T00:53:53.128Z,0.00
2023-01-15T00:54:54.034Z,0.00
2023-01-15T00:55:54.904Z,0.00
2023-01-15T00:56:55.785Z,0.00
2023-01-15T00:57:56.669Z,0.00
2023-01-15T00:58:57.551Z,0.00
2023-01-15T00:59:58.431Z,0.00
2023-01-15T01:00:59.398Z,0.00
2023-01-15T01:02:00.443Z,0.00
2023-01-15T01:03:00.823Z,0.00
2023-01-15T01:04:01.338Z,0.00
2023-01-15T01:05:02.212Z,0.00
2023-01-15T01:06:03.116Z,0.00
2023-01-15T01:07:04.018Z,0.00
2023-01-15T01:08:04.920Z,0.00
2023-01-15T01:09:05.813Z,0.00
2023-01-15T01:10:06.714Z,0.00
2023-01-15T01:11:07.612Z,0.00
2023-01-15T01:12:08.495Z,0.00
2023-01-15T01:13:09.403Z,0.00
2023-01-15T01:14:10.276Z,0.00
2023-01-15T01:15:11.151Z,0.00
2023-01-15T01:16:12.127Z,0.00
2023-01-15T01:17:12.969Z,0.00
2023-01-15T01:18:13.895Z,0.00
2023-01-15T01:19:14.788Z,0.00
2023-01-15T01:20:15.629Z,0.00
2023-01-15T01:21:16.523Z,0.00
2023-01-15T01:22:17.397Z,0.00
2023-01-15T01:23:18.298Z,0.00
2023-01-15T01:24:19.167Z,0.00
2023-01-15T01:25:20.074Z,0.00
2023-01-15T01:26:20.935Z,0.00
2023-01-15T01:27:21.820Z,0.00
2023-01-15T01:28:22.707Z,0.00
2023-01-15T01:29:23.594Z,0.00
2023-01-15T01:30:24.474Z,0.00
2023-01-15T01:31:25.382Z,0.00
2023-01-15T01:32:26.237Z,0.00
2023-01-15T01:33:27.150Z,0.00
2023-01-15T01:34:28.033Z,0.00
2023-01-15T01:35:28.909Z,0.00
2023-01-15T01:36:29.800Z,0.00
2023-01-15T01:37:30.684Z,0.00
2023-01-15T01:38:31.561Z,0.00
2023-01-15T01:39:32.441Z,0.00
2023-01-15T01:40:33.323Z,0.00
2023-01-15T01:41:34.197Z,0.00
2023-01-15T01:42:35.073Z,0.00
2023-01-15T01:43:35.985Z,0.00
2023-01-15T01:44:36.865Z,0.00
2023-01-15T01:45:37.812Z,0.00
2023-01-15T01:46:38.681Z,0.00
2023-01-15T01:47:39.563Z,0.00
2023-01-15T01:48:40.465Z,0.00
2023-01-15T01:49:41.354Z,0.00
2023-01-15T01:50:42.228Z,0.00
2023-01-15T01:51:43.110Z,0.00
2023-01-15T01:52:43.992Z,0.00
2023-01-15T01:53:44.888Z,0.00
2023-01-15T01:54:45.761Z,0.00
2023-01-15T01:55:46.653Z,0.00
2023-01-15T01:56:47.531Z,0.00
2023-01-15T01:57:48.450Z,0.00
2023-01-15T01:58:49.342Z,0.00
2023-01-15T01:59:50.240Z,0.00
2023-01-15T02:00:51.151Z,0.00
2023-01-15T02:01:52.185Z,0.00
2023-01-15T02:02:52.557Z,0.00
2023-01-15T02:03:53.449Z,0.00
2023-01-15T02:04:54.322Z,0.00
2023-01-15T02:05:55.210Z,0.00
2023-01-15T02:06:56.087Z,0.00
2023-01-15T02:07:56.999Z,0.00
2023-01-15T02:08:57.862Z,0.00
2023-01-15T02:09:58.752Z,0.00
2023-01-15T02:10:59.642Z,0.00
2023-01-15T02:12:00.509Z,0.00
2023-01-15T02:13:01.381Z,0.00
2023-01-15T02:14:02.304Z,0.00
2023-01-15T02:15:03.167Z,0.00
2023-01-15T02:16:04.130Z,0.00
2023-01-15T02:17:04.976Z,0.00
2023-01-15T02:18:05.855Z,0.00
2023-01-15T02:19:06.758Z,0.00
2023-01-15T02:20:07.659Z,0.00
2023-01-15T02:21:08.521Z,0.00
2023-01-15T02:22:09.403Z,0.00
2023-01-15T02:23:10.303Z,0.00
2023-01-15T02:24:11.218Z,0.00
2023-01-15T02:25:12.105Z,0.00
2023-01-15T02:26:13.020Z,0.00
2023-01-15T02:27:13.900Z,0.00
2023-01-15T02:28:14.786Z,0.00
2023-01-15T02:29:15.704Z,0.00
2023-01-15T02:30:16.585Z,0.00
2023-01-15T02:31:17.560Z,0.00
2023-01-15T02:32:18.396Z,0.00
2023-01-15T02:33:19.269Z,0.00
2023-01-15T02:34:20.203Z,0.00
2023-01-15T02:35:21.097Z,0.00
2023-01-15T02:36:21.976Z,0.00
2023-01-15T02:37:22.860Z,0.00
2023-01-15T02:38:23.751Z,0.00
2023-01-15T02:39:24.641Z,0.00
2023-01-15T02:40:25.528Z,0.00
2023-01-15T02:41:26.401Z,0.00
2023-01-15T02:42:27.291Z,0.00
2023-01-15T02:43:28.161Z,0.00
2023-01-15T02:44:29.069Z,0.00
2023-01-15T02:45:30.007Z,0.00
2023-01-15T02:46:30.863Z,0.00
2023-01-15T02:47:31.752Z,0.00
2023-01-15T02:48:32.621Z,0.00
2023-01-15T02:49:33.527Z,0.00
2023-01-15T02:50:34.426Z,0.00
2023-01-15T02:51:35.300Z,0.00
2023-01-15T02:52:36.178Z,0.00
2023-01-15T02:53:37.076Z,0.00
2023-01-15T02:54:37.968Z,0.00
2023-01-15T02:55:38.854Z,0.00
2023-01-15T02:56:39.760Z,0.00
2023-01-15T02:57:40.620Z,0.00
2023-01-15T02:58:41.502Z,0.00
2023-01-15T02:59:42.403Z,0.00
2023-01-15T03:00:43.351Z,0.00
2023-01-15T03:01:44.339Z,0.00
2023-01-15T03:02:44.860Z,0.00
2023-01-15T03:03:45.700Z,0.00
2023-01-15T03:04:46.589Z,0.00
2023-01-15T03:05:47.473Z,0.00
2023-01-15T03:06:48.356Z,0.00
2023-01-15T03:07:49.237Z,0.00
2023-01-15T03:08:50.137Z,0.00
2023-01-15T03:09:51.011Z,0.00
2023-01-15T03:10:51.895Z,0.00
2023-01-15T03:11:52.784Z,0.00
2023-01-15T03:12:53.660Z,0.00
2023-01-15T03:13:54.541Z,0.00
2023-01-15T03:14:55.435Z,0.00
2023-01-15T03:15:56.307Z,0.00
2023-01-15T03:16:57.254Z,0.00
2023-01-15T03:17:58.093Z,0.00
2023-01-15T03:18:58.967Z,0.00
2023-01-15T03:19:59.864Z,0.00
2023-01-15T03:21:00.752Z,0.00
2023-01-15T03:22:01.639Z,0.00
2023-01-15T03:23:02.516Z,0.00
2023-01-15T03:24:03.397Z,0.00
2023-01-15T03:25:04.273Z,0.00
2023-01-15T03:26:05.159Z,0.00
2023-01-15T03:27:06.035Z,0.00
2023-01-15T03:28:06.913Z,0.00
2023-01-15T03:29:07.788Z,0.00
2023-01-15T03:30:08.687Z,0.00
2023-01-15T03:31:09.594Z,0.00
2023-01-15T03:32:10.437Z,0.00
2023-01-15T03:33:11.322Z,0.00
2023-01-15T03:34:12.202Z,0.00
2023-01-15T03:35:13.088Z,0.00
2023-01-15T03:36:13.967Z,0.00
2023-01-15T03:37:14.845Z,0.00
2023-01-15T03:38:15.718Z,0.00
2023-01-15T03:39:16.615Z,0.00
2023-01-15T03:40:17.494Z,0.00
2023-01-15T03:41:18.367Z,0.00
2023-01-15T03:42:19.250Z,0.00
2023-01-15T03:43:20.138Z,0.00
2023-01-15T03:44:21.014Z,0.00
2023-01-15T03:45:21.921Z,0.00
2023-01-15T03:46:22.887Z,0.00
2023-01-15T03:47:23.767Z,0.00
2023-01-15T03:48:24.648Z,0.00
2023-01-15T03:49:25.616Z,0.00
2023-01-15T03:50:26.511Z,0.00
2023-01-15T03:51:27.399Z,0.00
2023-01-15T03:52:28.272Z,0.00
2023-01-15T03:53:29.150Z,0.00
2023-01-15T03:54:30.036Z,0.00
2023-01-15T03:55:30.918Z,0.00
2023-01-15T03:56:31.800Z,0.00
2023-01-15T03:57:32.682Z,0.00
2023-01-15T03:58:33.555Z,0.00
2023-01-15T03:59:34.433Z,0.00
2023-01-15T04:00:35.320Z,0.00
2023-01-15T04:01:36.327Z,0.00
2023-01-15T04:02:36.715Z,0.00
2023-01-15T04:03:37.598Z,0.00
2023-01-15T04:04:38.507Z,0.00
2023-01-15T04:05:39.375Z,0.00
2023-01-15T04:06:40.254Z,0.00
2023-01-15T04:07:41.137Z,0.00
2023-01-15T04:08:42.032Z,0.00
2023-01-15T04:09:42.903Z,0.00
2023-01-15T04:10:43.792Z,0.00
2023-01-15T04:11:44.668Z,0.00
2023-01-15T04:12:45.547Z,0.00
2023-01-15T04:13:46.421Z,0.00
2023-01-15T04:14:47.311Z,0.00
2023-01-15T04:15:48.222Z,0.00
2023-01-15T04:16:49.078Z,0.00
2023-01-15T04:17:50.063Z,0.00
2023-01-15T04:18:50.946Z,0.00
2023-01-15T04:19:51.815Z,0.00
2023-01-15T04:20:52.726Z,0.00
2023-01-15T04:21:53.594Z,0.00
2023-01-15T04:22:54.479Z,0.00
2023-01-15T04:23:55.367Z,0.00
2023-01-15T04:24:56.244Z,0.00
2023-01-15T04:25:57.128Z,0.00
2023-01-15T04:26:58.046Z,0.00
2023-01-15T04:27:58.893Z,0.00
2023-01-15T04:28:59.770Z,0.00
2023-01-15T04:30:00.652Z,0.00
2023-01-15T04:31:01.610Z,0.00
2023-01-15T04:32:02.448Z,0.00
2023-01-15T04:33:03.341Z,0.00
2023-01-15T04:34:04.218Z,0.00
2023-01-15T04:35:05.101Z,0.00
2023-01-15T04:36:05.974Z,0.00
2023-01-15T04:37:06.859Z,0.00
2023-01-15T04:38:07.740Z,0.00
2023-01-15T04:39:08.635Z,0.00
2023-01-15T04:40:09.498Z,0.00
2023-01-15T04:41:10.390Z,0.00
2023-01-15T04:42:11.331Z,0.00
2023-01-15T04:43:12.153Z,0.00
2023-01-15T04:44:13.035Z,0.00
2023-01-15T04:45:13.978Z,0.00
2023-01-15T04:46:14.898Z,0.00
2023-01-15T04:47:15.746Z,0.00
2023-01-15T04:48:16.626Z,0.00
2023-01-15T04:49:17.510Z,0.00
2023-01-15T04:50:18.392Z,0.00
2023-01-15T04:51:19.297Z,0.00
2023-01-15T04:52:20.190Z,0.00
2023-01-15T04:53:21.077Z,0.00
2023-01-15T04:54:21.946Z,0.00
2023-01-15T04:55:22.829Z,0.00
2023-01-15T04:56:23.714Z,0.00
2023-01-15T04:57:24.603Z,0.00
2023-01-15T04:58:25.476Z,0.00
2023-01-15T04:59:26.360Z,0.00
2023-01-15T05:00:27.245Z,0.00
2023-01-15T05:01:28.275Z,0.00
2023-01-15T05:02:28.764Z,0.00
2023-01-15T05:03:29.122Z,0.00
2023-01-15T05:04:30.088Z,0.00
2023-01-15T05:05:30.925Z,0.00
2023-01-15T05:06:31.808Z,0.00
2023-01-15T05:07:32.689Z,0.00
2023-01-15T05:08:33.563Z,0.00
2023-01-15T05:09:34.461Z,0.00
2023-01-15T05:10:35.331Z,0.00
2023-01-15T05:11:36.221Z,0.00
2023-01-15T05:12:37.104Z,0.00
2023-01-15T05:13:37.984Z,0.00
2023-01-15T05:14:38.866Z,0.00
2023-01-15T05:15:39.790Z,0.00
2023-01-15T05:16:40.646Z,0.00
2023-01-15T05:17:41.539Z,0.00
2023-01-15T05:18:42.412Z,0.00
2023-01-15T05:19:43.302Z,0.00
2023-01-15T05:20:44.163Z,0.00
2023-01-15T05:21:45.069Z,0.00
2023-01-15T05:22:45.941Z,0.00
2023-01-15T05:23:46.831Z,0.00
2023-01-15T05:24:47.710Z,0.00
2023-01-15T05:25:48.591Z,0.00
2023-01-15T05:26:49.488Z,0.00
2023-01-15T05:27:50.376Z,0.00
2023-01-15T05:28:51.250Z,0.00
2023-01-15T05:29:52.131Z,0.00
2023-01-15T05:30:53.043Z,0.00
2023-01-15T05:31:53.899Z,0.00
2023-01-15T05:32:54.768Z,0.00
2023-01-15T05:33:55.668Z,0.00
2023-01-15T05:34:56.547Z,0.00
2023-01-15T05:35:57.422Z,0.00
2023-01-15T05:36:58.298Z,0.00
2023-01-15T05:37:59.181Z,0.00
2023-01-15T05:39:00.084Z,0.00
2023-01-15T05:40:00.952Z,0.00
2023-01-15T05:41:01.835Z,0.00
2023-01-15T05:42:02.732Z,0.00
2023-01-15T05:43:03.592Z,0.00
2023-01-15T05:44:04.561Z,0.00
2023-01-15T05:45:05.375Z,0.00
2023-01-15T05:46:06.374Z,0.00
2023-01-15T05:47:06.787Z,0.00
2023-01-15T05:48:07.643Z,0.00
2023-01-15T05:49:08.529Z,0.00
2023-01-15T05:50:09.426Z,0.00
2023-01-15T05:51:10.296Z,0.00
2023-01-15T05:52:11.189Z,0.00
2023-01-15T05:53:12.073Z,0.00
2023-01-15T05:54:12.961Z,0.00
2023-01-15T05:55:13.847Z,0.00
2023-01-15T05:56:14.720Z,0.00
2023-01-15T05:57:15.607Z,0.00
2023-01-15T05:58:16.489Z,0.00
2023-01-15T05:59:17.361Z,0.00
2023-01-15T06:00:18.243Z,0.00
2023-01-15T06:01:19.171Z,0.00
2023-01-15T06:02:20.094Z,0.00
2023-01-15T06:03:21.040Z,0.00
2023-01-15T06:04:21.893Z,0.00
2023-01-15T06:05:22.753Z,0.00
2023-01-15T06:06:23.632Z,0.00
2023-01-15T06:07:24.528Z,0.00
2023-01-15T06:08:25.417Z,0.00
2023-01-15T06:09:26.272Z,0.00
2023-01-15T06:10:27.155Z,0.00
2023-01-15T06:11:28.039Z,0.00
2023-01-15T06:12:28.931Z,0.00
2023-01-15T06:13:29.827Z,0.00
2023-01-15T06:14:30.697Z,0.00
2023-01-15T06:15:31.573Z,0.00
2023-01-15T06:16:32.452Z,0.00
2023-01-15T06:17:33.345Z,0.00
2023-01-15T06:18:34.233Z,0.00
2023-01-15T06:19:35.125Z,0.00
2023-01-15T06:20:35.992Z,0.00
2023-01-15T06:21:36.882Z,0.00
2023-01-15T06:22:37.846Z,0.00
2023-01-15T06:23:38.851Z,0.00
2023-01-15T06:24:39.697Z,0.00
2023-01-15T06:25:40.586Z,0.00
2023-01-15T06:26:41.453Z,0.00
2023-01-15T06:27:42.340Z,0.00
2023-01-15T06:28:43.216Z,0.00
2023-01-15T06:29:44.102Z,0.00
2023-01-15T06:30:44.983Z,0.00
2023-01-15T06:31:45.978Z,0.00
2023-01-15T06:32:46.379Z,0.00
2023-01-15T06:33:47.268Z,0.00
2023-01-15T06:34:48.146Z,0.00
2023-01-15T06:35:49.032Z,0.00
2023-01-15T06:36:49.917Z,0.00
2023-01-15T06:37:50.814Z,0.00
2023-01-15T06:38:51.683Z,0.00
2023-01-15T06:39:52.574Z,0.00
2023-01-15T06:40:53.451Z,0.00
2023-01-15T06:41:54.332Z,0.00
2023-01-15T06:42:55.232Z,0.00
2023-01-15T06:43:56.062Z,1.00
2023-01-15T06:44:56.928Z,0.00
2023-01-15T06:45:57.801Z,0.00
2023-01-15T06:46:58.695Z,0.00
2023-01-15T06:47:59.535Z,1.00
2023-01-15T06:49:00.362Z,1.00
2023-01-15T06:50:01.193Z,1.00
2023-01-15T06:51:02.016Z,1.00
2023-01-15T06:52:02.844Z,1.00
2023-01-15T06:53:03.679Z,1.00
2023-01-15T06:54:04.494Z,2.00
2023-01-15T06:55:05.380Z,0.00
2023-01-15T06:56:06.274Z,0.00
2023-01-15T06:57:07.092Z,2.00
2023-01-15T06:58:07.938Z,2.00
2023-01-15T06:59:08.764Z,2.00
2023-01-15T07:00:09.600Z,2.00
2023-01-15T07:01:10.523Z,2.00
2023-01-15T07:02:11.366Z,2.00
2023-01-15T07:03:12.196Z,1.00
2023-01-15T07:04:13.119Z,1.00
2023-01-15T07:05:13.957Z,0.00
2023-01-15T07:06:14.796Z,2.00
2023-01-15T07:07:15.626Z,1.00
2023-01-15T07:08:16.468Z,2.00
2023-01-15T07:09:17.289Z,5.00
2023-01-15T07:10:18.113Z,6.00
2023-01-15T07:11:18.949Z,4.00
2023-01-15T07:12:19.772Z,3.00
2023-01-15T07:13:20.607Z,3.00
2023-01-15T07:14:21.444Z,5.00
2023-01-15T07:15:22.275Z,2.00
2023-01-15T07:16:23.167Z,2.00
2023-01-15T07:17:23.959Z,2.00
2023-01-15T07:18:24.827Z,5.00
2023-01-15T07:19:25.632Z,6.00
2023-01-15T07:20:26.457Z,10.00
2023-01-15T07:21:27.301Z,4.00
2023-01-15T07:22:28.133Z,8.00
2023-01-15T07:23:28.982Z,9.00
2023-01-15T07:24:29.799Z,8.00
2023-01-15T07:25:30.627Z,10.00
2023-01-15T07:26:31.472Z,10.00
2023-01-15T07:27:32.290Z,11.00
2023-01-15T07:28:33.128Z,19.00
2023-01-15T07:29:33.956Z,19.00
2023-01-15T07:30:34.785Z,21.00
2023-01-15T07:31:35.650Z,19.00
2023-01-15T07:32:36.468Z,18.00
2023-01-15T07:33:37.286Z,17.00
2023-01-15T07:34:38.112Z,20.00
2023-01-15T07:35:38.954Z,20.00
2023-01-15T07:36:39.777Z,20.00
2023-01-15T07:37:40.606Z,22.00
2023-01-15T07:38:41.457Z,18.00
2023-01-15T07:39:42.287Z,20.00
2023-01-15T07:40:43.103Z,27.00
2023-01-15T07:41:43.930Z,27.00
2023-01-15T07:42:44.760Z,27.00
2023-01-15T07:43:45.598Z,26.00
2023-01-15T07:44:46.420Z,24.00
2023-01-15T07:45:47.310Z,24.00
2023-01-15T07:46:48.155Z,27.00
2023-01-15T07:47:48.957Z,24.00
2023-01-15T07:48:49.794Z,24.00
2023-01-15T07:49:50.623Z,23.00
2023-01-15T07:50:51.474Z,20.00
2023-01-15T07:51:52.283Z,25.00
2023-01-15T07:52:53.741Z,27.00
2023-01-15T07:53:53.671Z,28.00
2023-01-15T07:54:54.499Z,27.00
2023-01-15T07:55:55.329Z,30.00
2023-01-15T07:56:56.159Z,30.00
2023-01-15T07:57:56.992Z,29.00
2023-01-15T07:58:57.817Z,31.00
2023-01-15T07:59:58.645Z,32.00
2023-01-15T08:00:59.559Z,30.00
2023-01-15T08:02:00.513Z,33.00
2023-01-15T08:03:01.333Z,33.00
2023-01-15T08:04:02.212Z,38.00
2023-01-15T08:05:03.001Z,35.00
2023-01-15T08:06:03.829Z,38.00
2023-01-15T08:07:04.649Z,37.00
2023-01-15T08:08:05.479Z,40.00
2023-01-15T08:09:06.321Z,48.00
2023-01-15T08:10:07.160Z,47.00
2023-01-15T08:11:07.976Z,48.00
2023-01-15T08:12:08.806Z,58.00
2023-01-15T08:13:09.640Z,65.00
2023-01-15T08:14:10.475Z,75.00
2023-01-15T08:15:11.301Z,68.00
2023-01-15T08:16:12.206Z,61.00
2023-01-15T08:17:13.020Z,64.00
2023-01-15T08:18:13.833Z,62.00
2023-01-15T08:19:14.670Z,65.00
2023-01-15T08:20:15.489Z,62.00
2023-01-15T08:21:16.318Z,52.00
2023-01-15T08:22:17.148Z,51.00
2023-01-15T08:23:17.980Z,55.00
2023-01-15T08:24:18.817Z,54.00
2023-01-15T08:25:19.656Z,60.00
2023-01-15T08:26:20.463Z,60.00
2023-01-15T08:27:21.292Z,62.00
2023-01-15T08:28:22.124Z,66.00
2023-01-15T08:29:22.981Z,67.00
2023-01-15T08:30:23.832Z,70.00
2023-01-15T08:31:24.643Z,70.00
2023-01-15T08:32:25.461Z,70.00
2023-01-15T08:33:26.267Z,69.00
2023-01-15T08:34:27.100Z,72.00
2023-01-15T08:35:27.950Z,75.00
2023-01-15T08:36:28.793Z,74.00
2023-01-15T08:37:29.595Z,73.00
2023-01-15T08:38:30.419Z,80.00
2023-01-15T08:39:31.255Z,81.00
2023-01-15T08:40:32.080Z,78.00
2023-01-15T08:41:32.935Z,85.00
2023-01-15T08:42:33.739Z,95.00
2023-01-15T08:43:34.569Z,90.00
2023-01-15T08:44:35.395Z,99.00
2023-01-15T08:45:36.237Z,95.00
2023-01-15T08:46:37.052Z,103.00
2023-01-15T08:47:37.879Z,95.00
2023-01-15T08:48:38.704Z,98.00
2023-01-15T08:49:39.555Z,103.00
2023-01-15T08:50:40.376Z,96.00
2023-01-15T08:51:41.206Z,103.00
2023-01-15T08:52:42.059Z,106.00
2023-01-15T08:53:42.878Z,103.00
2023-01-15T08:54:43.703Z,106.00
2023-01-15T08:55:44.536Z,111.00
2023-01-15T08:56:45.376Z,108.00
2023-01-15T08:57:46.183Z,101.00
2023-01-15T08:58:47.019Z,94.00
2023-01-15T08:59:47.866Z,89.00
2023-01-15T09:00:48.792Z,92.00
2023-01-15T09:01:49.687Z,92.00
2023-01-15T09:02:50.540Z,91.00
2023-01-15T09:03:51.316Z,85.00
2023-01-15T09:04:52.263Z,87.00
2023-01-15T09:05:53.081Z,85.00
2023-01-15T09:06:53.923Z,80.00
2023-01-15T09:07:54.740Z,85.00
2023-01-15T09:08:55.559Z,87.00
2023-01-15T09:09:56.438Z,82.00
2023-01-15T09:10:57.315Z,83.00
2023-01-15T09:11:58.145Z,86.00
2023-01-15T09:12:59.010Z,86.00
2023-01-15T09:13:59.815Z,82.00
2023-01-15T09:15:03.098Z,82.00
2023-01-15T09:16:01.589Z,79.00
2023-01-15T09:17:02.403Z,79.00
2023-01-15T09:18:03.239Z,76.00
2023-01-15T09:19:04.110Z,84.00
2023-01-15T09:20:04.907Z,83.00
2023-01-15T09:21:05.709Z,91.00
2023-01-15T09:22:06.539Z,94.00
2023-01-15T09:23:07.387Z,93.00
2023-01-15T09:24:08.200Z,90.00
2023-01-15T09:25:09.039Z,89.00
2023-01-15T09:26:09.867Z,87.00
2023-01-15T09:27:10.688Z,88.00
2023-01-15T09:28:11.522Z,94.00
2023-01-15T09:29:12.359Z,106.00
2023-01-15T09:30:13.182Z,100.00
2023-01-15T09:31:14.085Z,106.00
2023-01-15T09:32:14.867Z,111.00
2023-01-15T09:33:15.702Z,114.00
2023-01-15T09:34:16.523Z,125.00
2023-01-15T09:35:17.375Z,104.00
2023-01-15T09:36:18.203Z,128.00
2023-01-15T09:37:19.065Z,155.00
2023-01-15T09:38:19.888Z,143.00
2023-01-15T09:39:20.775Z,165.00
2023-01-15T09:40:21.595Z,147.00
2023-01-15T09:41:22.392Z,135.00
2023-01-15T09:42:23.215Z,136.00
2023-01-15T09:43:24.080Z,126.00
2023-01-15T09:44:24.874Z,134.00
2023-01-15T09:45:25.718Z,137.00
2023-01-15T09:46:26.573Z,122.00
2023-01-15T09:47:27.378Z,108.00
2023-01-15T09:48:28.194Z,99.00
2023-01-15T09:49:29.094Z,91.00
2023-01-15T09:50:29.876Z,98.00
2023-01-15T09:51:30.705Z,100.00
2023-01-15T09:52:31.542Z,102.00
2023-01-15T09:53:32.353Z,96.00
2023-01-15T09:54:33.291Z,87.00
2023-01-15T09:55:34.078Z,82.00
2023-01-15T09:56:34.904Z,81.00
2023-01-15T09:57:35.752Z,86.00
2023-01-15T09:58:36.596Z,86.00
2023-01-15T09:59:37.434Z,116.00
2023-01-15T10:00:38.238Z,119.00
2023-01-15T10:01:39.076Z,105.00
2023-01-15T10:02:39.929Z,91.00
2023-01-15T10:03:40.727Z,92.00
2023-01-15T10:04:41.565Z,90.00
2023-01-15T10:05:42.600Z,84.00
2023-01-15T10:06:42.904Z,82.00
2023-01-15T10:07:43.752Z,73.00
2023-01-15T10:08:44.583Z,78.00
2023-01-15T10:09:45.413Z,71.00
2023-01-15T10:10:46.236Z,79.00
2023-01-15T10:11:47.071Z,80.00
2023-01-15T10:12:47.935Z,82.00
2023-01-15T10:13:48.725Z,81.00
2023-01-15T10:14:49.561Z,80.00
2023-01-15T10:15:50.419Z,75.00
2023-01-15T10:16:51.230Z,70.00
2023-01-15T10:17:52.077Z,63.00
2023-01-15T10:18:52.886Z,51.00
2023-01-15T10:19:53.722Z,54.00
2023-01-15T10:20:54.559Z,48.00
2023-01-15T10:21:55.427Z,49.00
2023-01-15T10:22:57.741Z,49.00
2023-01-15T10:23:56.735Z,49.00
2023-01-15T10:24:57.541Z,49.00
2023-01-15T10:25:58.396Z,53.00
2023-01-15T10:26:59.237Z,53.00
2023-01-15T10:28:00.042Z,49.00
2023-01-15T10:29:00.900Z,49.00
2023-01-15T10:30:01.715Z,45.00
2023-01-15T10:31:02.571Z,42.00
2023-01-15T10:32:03.445Z,41.00
2023-01-15T10:33:04.269Z,41.00
2023-01-15T10:34:05.078Z,47.00
2023-01-15T10:35:05.951Z,48.00
2023-01-15T10:36:06.728Z,53.00
2023-01-15T10:37:07.560Z,62.00
2023-01-15T10:38:08.377Z,72.00
2023-01-15T10:39:09.203Z,82.00
2023-01-15T10:40:10.033Z,97.00
2023-01-15T10:41:10.997Z,108.00
2023-01-15T10:42:11.831Z,122.00
2023-01-15T10:43:12.670Z,120.00
2023-01-15T10:44:13.489Z,156.00
2023-01-15T10:45:14.325Z,149.00
2023-01-15T10:46:15.235Z,186.00
2023-01-15T10:47:16.128Z,165.00
2023-01-15T10:48:16.896Z,161.00
2023-01-15T10:49:17.734Z,153.00
2023-01-15T10:50:18.588Z,147.00
2023-01-15T10:51:19.397Z,144.00
2023-01-15T10:52:20.217Z,124.00
2023-01-15T10:53:21.096Z,113.00
2023-01-15T10:54:21.882Z,109.00
2023-01-15T10:55:22.717Z,111.00
2023-01-15T10:56:23.578Z,107.00
2023-01-15T10:57:24.420Z,117.00
2023-01-15T10:58:25.225Z,127.00
2023-01-15T10:59:26.056Z,128.00
2023-01-15T11:00:26.899Z,134.00
2023-01-15T11:01:27.918Z,146.00
2023-01-15T11:02:28.631Z,163.00
2023-01-15T11:03:29.059Z,165.00
2023-01-15T11:04:29.851Z,187.00
2023-01-15T11:05:30.701Z,197.00
2023-01-15T11:06:31.553Z,182.00
2023-01-15T11:07:32.357Z,159.00
2023-01-15T11:09:08.450Z,130.00
2023-01-15T11:09:34.901Z,110.00
2023-01-15T11:10:34.741Z,91.00
2023-01-15T11:11:35.595Z,85.00
2023-01-15T11:12:36.389Z,83.00
2023-01-15T11:13:37.241Z,77.00
2023-01-15T11:14:38.078Z,81.00
2023-01-15T11:15:38.950Z,74.00
2023-01-15T11:16:39.786Z,76.00
2023-01-15T11:17:40.593Z,70.00
2023-01-15T11:18:41.412Z,74.00
2023-01-15T11:19:42.248Z,79.00
2023-01-15T11:20:43.079Z,76.00
2023-01-15T11:21:43.929Z,77.00
2023-01-15T11:22:45.066Z,75.00
2023-01-15T11:23:45.377Z,77.00
2023-01-15T11:24:46.225Z,81.00
2023-01-15T11:25:47.055Z,86.00
2023-01-15T11:26:47.880Z,86.00
2023-01-15T11:27:48.714Z,87.00
2023-01-15T11:28:49.559Z,97.00
2023-01-15T11:29:50.365Z,98.00
2023-01-15T11:30:51.248Z,105.00
2023-01-15T11:31:52.049Z,114.00
2023-01-15T11:32:52.883Z,107.00
2023-01-15T11:33:53.698Z,102.00
2023-01-15T11:34:54.533Z,94.00
2023-01-15T11:35:55.356Z,95.00
2023-01-15T11:36:56.199Z,103.00
2023-01-15T11:37:57.028Z,106.00
2023-01-15T11:38:57.844Z,113.00
2023-01-15T11:39:58.687Z,129.00
2023-01-15T11:40:59.673Z,144.00
2023-01-15T11:42:00.024Z,167.00
2023-01-15T11:43:00.848Z,188.00
2023-01-15T11:44:01.680Z,183.00
2023-01-15T11:45:02.522Z,141.00
2023-01-15T11:46:03.396Z,119.00
2023-01-15T11:47:04.200Z,105.00
2023-01-15T11:48:05.007Z,90.00
2023-01-15T11:49:05.839Z,80.00
2023-01-15T11:50:06.699Z,70.00
2023-01-15T11:51:07.505Z,63.00
2023-01-15T11:52:08.377Z,60.00
2023-01-15T11:53:09.183Z,54.00
2023-01-15T11:54:10.018Z,52.00
2023-01-15T11:55:10.837Z,49.00
2023-01-15T11:56:11.661Z,40.00
2023-01-15T11:57:12.520Z,28.00
2023-01-15T11:58:13.351Z,22.00
2023-01-15T11:59:14.147Z,24.00
2023-01-15T12:00:14.974Z,23.00
2023-01-15T12:01:15.879Z,20.00
2023-01-15T12:02:16.674Z,19.00
2023-01-15T12:03:17.605Z,25.00
2023-01-15T12:04:18.562Z,24.00
2023-01-15T12:05:19.435Z,22.00
2023-01-15T12:06:20.233Z,24.00
2023-01-15T12:07:21.072Z,24.00
2023-01-15T12:08:21.901Z,22.00
2023-01-15T12:09:22.729Z,19.00
2023-01-15T12:10:23.562Z,16.00
2023-01-15T12:11:27.176Z,19.00
2023-01-15T12:12:25.239Z,13.00
2023-01-15T12:13:26.028Z,17.00
2023-01-15T12:14:26.873Z,16.00
2023-01-15T12:15:27.680Z,15.00
2023-01-15T12:16:28.582Z,15.00
2023-01-15T12:17:29.389Z,16.00
2023-01-15T12:18:30.202Z,16.00
2023-01-15T12:19:31.024Z,16.00
2023-01-15T12:20:31.844Z,15.00
2023-01-15T12:21:32.684Z,16.00
2023-01-15T12:22:33.520Z,13.00
2023-01-15T12:23:34.361Z,17.00
2023-01-15T12:24:35.167Z,23.00
2023-01-15T12:25:36.018Z,24.00
2023-01-15T12:26:36.815Z,17.00
2023-01-15T12:27:37.658Z,19.00
2023-01-15T12:28:38.472Z,16.00
2023-01-15T12:29:39.306Z,17.00
2023-01-15T12:30:40.128Z,25.00
2023-01-15T12:31:40.988Z,28.00
2023-01-15T12:32:41.814Z,27.00
2023-01-15T12:33:42.647Z,28.00
2023-01-15T12:34:43.475Z,25.00
2023-01-15T12:35:44.293Z,18.00
2023-01-15T12:36:45.116Z,20.00
2023-01-15T12:37:45.987Z,20.00
2023-01-15T12:38:46.805Z,19.00
2023-01-15T12:39:47.640Z,18.00
2023-01-15T12:40:48.452Z,19.00
2023-01-15T12:41:49.288Z,21.00
2023-01-15T12:42:50.108Z,22.00
2023-01-15T12:43:51.552Z,21.00
2023-01-15T12:44:51.872Z,23.00
2023-01-15T12:45:52.701Z,16.00
2023-01-15T12:46:53.573Z,15.00
2023-01-15T12:47:54.413Z,16.00
2023-01-15T12:48:55.244Z,19.00
2023-01-15T12:49:56.074Z,19.00
2023-01-15T12:50:56.913Z,19.00
2023-01-15T12:51:57.728Z,18.00
2023-01-15T12:52:58.665Z,16.00
2023-01-15T12:53:59.483Z,16.00
2023-01-15T12:55:00.279Z,15.00
2023-01-15T12:56:01.120Z,15.00
2023-01-15T12:57:02.964Z,15.00
2023-01-15T12:58:02.848Z,15.00
2023-01-15T12:59:03.679Z,15.00
2023-01-15T13:00:04.499Z,15.00
2023-01-15T13:01:05.405Z,16.00
2023-01-15T13:02:06.338Z,18.00
2023-01-15T13:03:07.205Z,17.00
2023-01-15T13:04:08.044Z,16.00
2023-01-15T13:05:08.844Z,15.00
2023-01-15T13:06:09.686Z,14.00
2023-01-15T13:07:10.507Z,17.00
2023-01-15T13:08:11.347Z,21.00
2023-01-15T13:09:12.171Z,23.00
2023-01-15T13:10:13.014Z,22.00
2023-01-15T13:11:13.843Z,23.00
2023-01-15T13:12:14.655Z,21.00
2023-01-15T13:13:15.489Z,19.00
2023-01-15T13:14:16.319Z,20.00
2023-01-15T13:15:17.144Z,20.00